Time;durP1;ratioP1;P1;durP2;ratioP2;P2;SDS_P1;SDS_P2;PMS_P1;PMS_P2;Temp;Humidity;BMP_temperature;BMP_pressure;BME280_temperature;BME280_humidity;BME280_pressure;Samples;Min_cycle;Max_cycle;Signal;HPM_P1;HPM_P2
2022/11/10 00:03:07;;;;;;;;;55.40;42.40;;;;;12.50;68.24;98895.66;6191237;28;96416;-72
2022/11/10 00:06:30;;;;;;;;;51.00;42.00;;;;;12.46;68.02;98902.56;6182512;28;97011;-73
2022/11/10 00:09:52;;;;;;;;;51.60;42.00;;;;;12.41;68.23;98898.94;6185666;28;96296;-72
2022/11/10 00:13:14;;;;;;;;;53.00;41.25;;;;;12.38;67.97;98902.09;6191005;28;96514;-72
2022/11/10 00:20:15;;;;;;;;;50.40;40.00;;;;;12.37;68.09;98909.38;6189334;28;96881;-72
2022/11/10 00:23:39;;;;;;;;;54.40;43.00;;;;;12.36;67.72;98910.44;6173647;28;96297;-72
2022/11/10 00:27:02;;;;;;;;;53.00;41.00;;;;;12.26;67.79;98915.59;6166737;28;98248;-73
2022/11/10 00:30:24;;;;;;;;;51.60;41.00;;;;;12.23;67.96;98907.09;6166989;28;96354;-72
2022/11/10 00:33:46;;;;;;;;;53.40;40.40;;;;;12.10;68.22;98883.81;6183945;28;96898;-72
2022/11/10 00:37:08;;;;;;;;;50.00;40.00;;;;;12.14;68.07;98898.50;6189521;28;96736;-72
2022/11/10 00:40:31;;;;;;;;;50.00;40.00;;;;;12.12;68.19;98914.94;6190059;28;96239;-72
2022/11/10 00:43:53;;;;;;;;;53.75;41.50;;;;;12.14;68.75;98910.16;6190671;28;96546;-72
2022/11/10 00:47:15;;;;;;;;;46.40;37.60;;;;;12.14;68.73;98920.13;6180419;28;96376;-73
2022/11/10 00:50:37;;;;;;;;;51.25;40.00;;;;;12.14;68.98;98907.44;6163948;28;96670;-74
2022/11/10 00:53:59;;;;;;;;;48.80;38.80;;;;;12.21;68.44;98911.94;6180139;28;96913;-72
2022/11/10 00:57:22;;;;;;;;;51.40;40.00;;;;;12.20;68.54;98903.00;6189578;28;96402;-72
2022/11/10 01:00:44;;;;;;;;;50.60;38.40;;;;;12.29;68.64;98922.41;6189253;28;98164;-72
2022/11/10 01:04:07;;;;;;;;;46.75;38.00;;;;;12.31;68.44;98920.31;6185159;28;96255;-71
2022/11/10 01:07:28;;;;;;;;;50.40;40.00;;;;;12.35;68.83;98921.47;6182927;28;96864;-71
2022/11/10 01:10:50;;;;;;;;;50.00;39.00;;;;;12.24;69.15;98915.00;6178393;28;96279;-73
2022/11/10 01:14:14;;;;;;;;;49.20;38.00;;;;;12.44;68.98;98929.03;6176585;28;96292;-73
2022/11/10 01:17:35;;;;;;;;;44.80;36.00;;;;;12.45;68.93;98924.44;6163337;28;96698;-71
2022/11/10 01:20:58;;;;;;;;;45.75;36.00;;;;;12.44;68.55;98922.78;6177581;28;96380;-72
2022/11/10 01:24:21;;;;;;;;;46.50;37.50;;;;;12.45;68.21;98929.84;6180892;28;96486;-73
2022/11/10 01:27:44;;;;;;;;;47.00;37.60;;;;;12.46;68.20;98926.88;6180566;28;96716;-72
2022/11/10 01:31:09;;;;;;;;;46.80;36.00;;;;;12.35;68.18;98906.09;6189418;28;96498;-72
2022/11/10 01:34:31;;;;;;;;;47.00;38.00;;;;;12.52;67.42;98925.16;6180451;28;96842;-72
2022/11/10 01:37:53;;;;;;;;;44.00;35.00;;;;;12.45;67.65;98927.97;6183714;28;96540;-72
2022/11/10 01:41:15;;;;;;;;;45.80;36.00;;;;;12.46;67.38;98931.50;6188621;28;96338;-71
2022/11/10 01:44:40;;;;;;;;;45.60;37.60;;;;;12.24;67.47;98909.59;6173526;28;96449;-72
2022/11/10 01:48:07;;;;;;;;;45.00;35.80;;;;;12.46;67.52;98937.72;6184838;28;96458;-72
2022/11/10 01:51:38;;;;;;;;;45.00;36.00;;;;;12.37;67.83;98939.09;6180110;28;96298;-72
2022/11/10 01:54:59;;;;;;;;;44.20;35.00;;;;;12.35;67.96;98945.81;6186605;28;96510;-72
2022/11/10 01:58:26;;;;;;;;;46.50;36.50;;;;;12.40;67.70;98952.19;6166551;28;96897;-73
2022/11/10 02:01:50;;;;;;;;;42.25;35.00;;;;;12.41;67.90;98956.50;6188126;28;96251;-71
2022/11/10 02:05:14;;;;;;;;;44.00;36.20;;;;;12.38;67.57;98946.16;6177865;28;96384;-73
2022/11/10 02:08:36;;;;;;;;;45.00;35.00;;;;;12.41;67.55;98961.13;6188542;28;96329;-71
2022/11/10 02:11:59;;;;;;;;;47.00;38.00;;;;;12.39;67.56;98958.63;6188143;28;96735;-72
2022/11/10 02:15:21;;;;;;;;;43.80;35.80;;;;;12.36;67.61;98952.88;6159999;28;96671;-72
2022/11/10 02:18:43;;;;;;;;;44.00;33.00;;;;;12.33;68.27;98978.47;6174208;28;96994;-72
2022/11/10 02:22:06;;;;;;;;;42.60;35.00;;;;;12.26;68.98;98976.94;6181803;28;96683;-72
2022/11/10 02:25:32;;;;;;;;;43.00;35.00;;;;;12.24;68.80;98974.47;6172090;28;96734;-72
2022/11/10 02:28:54;;;;;;;;;46.00;35.00;;;;;12.27;68.79;98975.88;6174355;28;96579;-73
2022/11/10 02:32:16;;;;;;;;;41.40;35.00;;;;;12.23;68.92;98978.22;6170491;28;96681;-72
2022/11/10 02:35:38;;;;;;;;;40.50;33.00;;;;;12.22;68.87;98984.66;6186559;28;96298;-71
2022/11/10 02:39:02;;;;;;;;;45.50;35.50;;;;;12.21;69.09;98987.63;6175413;28;97028;-72
2022/11/10 02:42:24;;;;;;;;;46.00;37.40;;;;;12.26;69.27;98985.88;6187224;28;96886;-72
2022/11/10 02:45:46;;;;;;;;;43.60;36.00;;;;;12.24;68.72;98981.75;6187288;28;96239;-71
2022/11/10 02:49:08;;;;;;;;;45.25;37.75;;;;;12.27;68.95;98983.97;6187359;28;96247;-72
2022/11/10 02:52:31;;;;;;;;;45.00;36.50;;;;;12.24;68.82;98979.03;6168375;28;97451;-73
2022/11/10 02:55:54;;;;;;;;;46.00;36.40;;;;;12.22;68.68;98979.25;6169464;28;96683;-72
2022/11/10 02:59:16;;;;;;;;;44.00;36.00;;;;;12.18;68.94;98978.06;6186394;28;96644;-72
2022/11/10 03:02:37;;;;;;;;;45.00;35.50;;;;;12.12;69.02;98982.50;6162534;28;96616;-72
2022/11/10 03:05:59;;;;;;;;;44.50;35.00;;;;;12.10;69.69;98989.22;6171215;28;96803;-72
2022/11/10 03:09:21;;;;;;;;;46.20;35.20;;;;;12.07;69.90;98981.56;6185336;28;97548;-72
2022/11/10 03:12:44;;;;;;;;;42.25;34.00;;;;;12.07;70.20;98993.19;6181349;28;96266;-72
2022/11/10 03:16:06;;;;;;;;;44.75;37.00;;;;;12.07;70.44;98985.06;6191059;28;97487;-73
2022/11/10 03:19:28;;;;;;;;;42.50;34.50;;;;;12.08;70.39;99000.25;6187425;28;96238;-74
2022/11/10 03:22:50;;;;;;;;;45.00;35.25;;;;;12.04;70.58;98995.53;6178474;28;96957;-73
2022/11/10 03:26:13;;;;;;;;;47.00;36.25;;;;;12.06;70.76;99002.38;6160176;28;97086;-72
2022/11/10 03:29:36;;;;;;;;;42.50;34.00;;;;;12.04;70.58;99009.88;6179018;28;96362;-70
2022/11/10 03:32:58;;;;;;;;;45.50;38.00;;;;;12.06;70.21;98998.84;6184031;28;96417;-72
2022/11/10 03:36:20;;;;;;;;;42.00;35.00;;;;;12.06;70.29;98990.72;6172754;28;96829;-73
2022/11/10 03:39:42;;;;;;;;;44.60;34.40;;;;;12.04;70.01;98998.22;6177521;28;96618;-69
2022/11/10 03:43:04;;;;;;;;;45.60;35.60;;;;;12.07;70.21;99009.41;6183547;28;96250;-72
2022/11/10 03:46:27;;;;;;;;;45.00;36.00;;;;;12.07;70.83;99017.50;6186733;28;97172;-72
2022/11/10 03:49:50;;;;;;;;;39.75;33.00;;;;;12.09;71.24;99006.47;6167954;28;96676;-72
2022/11/10 03:53:11;;;;;;;;;39.00;33.00;;;;;12.09;71.09;99017.28;6164997;28;99682;-71
2022/11/10 03:56:33;;;;;;;;;42.50;33.00;;;;;12.11;70.88;99013.31;6167735;28;97093;-73
2022/11/10 03:59:55;;;;;;;;;39.75;33.00;;;;;12.15;70.16;99017.22;6182102;28;96967;-71
2022/11/10 04:03:18;;;;;;;;;37.00;32.00;;;;;12.14;70.10;99007.44;6180803;28;96511;-71
2022/11/10 04:10:36;;;;;;;;;38.00;32.00;;;;;12.25;70.75;99022.06;6102157;28;96304;-70
2022/11/10 04:17:37;;;;;;;;;40.60;33.00;;;;;12.27;70.70;99029.94;6191388;28;97519;-70
2022/11/10 04:21:01;;;;;;;;;44.20;34.40;;;;;12.31;70.37;99040.09;6193510;28;96256;-71
2022/11/10 04:24:23;;;;;;;;;44.00;35.00;;;;;12.33;69.64;99031.72;6189984;28;96315;-70
2022/11/10 04:27:45;;;;;;;;;44.00;36.00;;;;;12.14;69.68;99009.31;6188247;28;96303;-72
2022/11/10 04:31:07;;;;;;;;;47.40;36.60;;;;;12.24;68.73;99038.50;6189588;28;96535;-71
2022/11/10 04:34:29;;;;;;;;;48.00;37.80;;;;;12.20;67.77;99046.25;6183567;28;96977;-71
2022/11/10 04:37:53;;;;;;;;;44.50;37.50;;;;;12.16;68.21;99045.06;6186274;28;96902;-72
2022/11/10 04:41:15;;;;;;;;;41.20;35.40;;;;;12.21;68.73;99044.38;6185272;28;97288;-71
2022/11/10 04:44:37;;;;;;;;;42.50;34.00;;;;;12.23;68.84;99029.56;6175957;28;97491;-73
2022/11/10 04:47:59;;;;;;;;;36.20;32.00;;;;;12.39;69.11;99034.34;6185524;28;97061;-71
2022/11/10 04:51:22;;;;;;;;;38.50;32.00;;;;;12.44;69.22;99041.75;6188074;28;96094;-71
2022/11/10 04:54:46;;;;;;;;;39.60;32.40;;;;;12.53;69.01;99038.50;6186111;28;96822;-72
2022/11/10 04:58:08;;;;;;;;;44.20;35.40;;;;;12.58;68.95;99046.75;6182882;28;96720;-72
2022/11/10 05:01:30;;;;;;;;;39.50;32.50;;;;;12.63;68.77;99035.22;6179548;28;96253;-72
2022/11/10 05:04:51;;;;;;;;;39.20;32.00;;;;;12.72;68.51;99036.53;6188958;28;96327;-73
2022/11/10 05:08:13;;;;;;;;;33.40;30.00;;;;;12.77;68.63;99057.50;6179468;28;96384;-72
2022/11/10 05:11:36;;;;;;;;;36.60;32.00;;;;;12.84;68.22;99067.16;6188529;28;96742;-71
2022/11/10 05:14:58;;;;;;;;;37.00;30.00;;;;;12.96;67.99;99078.00;6168798;28;97492;-72
2022/11/10 05:18:20;;;;;;;;;40.20;32.60;;;;;12.96;67.26;99073.41;6183449;28;96281;-72
2022/11/10 05:21:42;;;;;;;;;35.60;31.00;;;;;12.92;66.60;99072.25;6183002;28;96774;-72
2022/11/10 05:25:04;;;;;;;;;35.60;29.60;;;;;12.94;66.52;99072.84;6188064;28;96699;-72
2022/11/10 05:28:27;;;;;;;;;32.60;31.60;;;;;13.00;66.36;99079.19;6181299;28;96579;-73
2022/11/10 05:31:49;;;;;;;;;37.33;30.33;;;;;12.97;66.54;99091.31;6182375;28;96518;-73
2022/11/10 05:35:12;;;;;;;;;40.00;33.00;;;;;12.99;66.04;99096.50;6192804;28;96364;-72
2022/11/10 05:38:33;;;;;;;;;39.33;34.00;;;;;12.99;66.02;99093.78;6158495;28;97926;-74
2022/11/10 05:42:02;;;;;;;;;41.00;33.00;;;;;13.02;65.74;99099.56;6179639;28;96280;-71
2022/11/10 05:45:27;;;;;;;;;43.60;35.00;;;;;13.01;65.29;99105.19;6168009;28;96685;-71
2022/11/10 05:48:49;;;;;;;;;44.00;34.00;;;;;13.04;64.89;99110.16;6197178;28;96607;-72
2022/11/10 05:52:11;;;;;;;;;39.00;32.00;;;;;13.00;65.01;99115.19;6191081;28;96416;-73
2022/11/10 05:55:33;;;;;;;;;38.40;31.60;;;;;13.03;64.82;99117.47;6193198;28;97337;-74
2022/11/10 05:58:55;;;;;;;;;45.00;35.00;;;;;13.01;65.04;99124.13;6197358;28;97398;-75
2022/11/10 06:02:19;;;;;;;;;41.00;33.40;;;;;13.00;65.01;99133.31;6198302;28;96261;-73
2022/11/10 06:05:41;;;;;;;;;45.00;35.00;;;;;13.03;64.69;99136.41;6207048;28;96250;-71
2022/11/10 06:09:02;;;;;;;;;38.60;33.60;;;;;13.07;64.53;99146.75;6181434;28;96467;-73
2022/11/10 06:12:29;;;;;;;;;44.40;33.20;;;;;13.11;64.10;99153.34;6188550;28;96449;-72
2022/11/10 06:15:51;;;;;;;;;43.40;35.40;;;;;13.12;64.24;99150.44;6180728;28;96952;-74
2022/11/10 06:19:14;;;;;;;;;44.00;35.50;;;;;13.13;64.03;99164.81;6187358;28;96198;-73
2022/11/10 06:22:36;;;;;;;;;44.00;36.00;;;;;13.12;63.84;99166.69;6161570;28;97145;-75
2022/11/10 06:25:58;;;;;;;;;40.20;33.40;;;;;13.12;67.27;99182.94;6187749;28;96453;-73
2022/11/10 06:29:20;;;;;;;;;41.25;33.25;;;;;13.12;67.19;99185.66;6184086;28;96293;-73
2022/11/10 06:32:47;;;;;;;;;38.60;34.00;;;;;13.12;65.36;99209.19;6180257;28;97224;-72
2022/11/10 06:36:10;;;;;;;;;39.60;32.60;;;;;13.10;64.33;99208.53;6182747;28;96914;-73
2022/11/10 06:39:32;;;;;;;;;42.80;35.40;;;;;13.07;64.06;99215.25;6182303;28;97156;-72
2022/11/10 06:42:54;;;;;;;;;44.00;35.00;;;;;12.98;63.15;99222.88;6184069;28;96564;-71
2022/11/10 06:46:16;;;;;;;;;45.80;37.60;;;;;13.00;63.22;99222.63;6180431;28;96757;-72
2022/11/10 06:49:38;;;;;;;;;43.00;33.80;;;;;12.94;63.18;99231.69;6184430;28;96292;-74
2022/11/10 06:53:01;;;;;;;;;43.00;35.60;;;;;12.88;63.25;99241.53;6184949;28;96417;-73
2022/11/10 06:56:23;;;;;;;;;43.20;35.00;;;;;12.87;63.43;99247.16;6181983;28;96424;-73
2022/11/10 06:59:45;;;;;;;;;47.00;37.80;;;;;12.82;63.52;99241.59;6186809;28;96525;-73
2022/11/10 07:03:10;;;;;;;;;44.50;36.00;;;;;12.79;63.68;99247.50;6188062;28;96579;-73
2022/11/10 07:06:31;;;;;;;;;43.50;35.00;;;;;12.76;63.98;99251.47;6170225;28;96608;-74
2022/11/10 07:09:55;;;;;;;;;47.20;38.00;;;;;12.76;64.25;99254.16;6183386;28;96511;-73
2022/11/10 07:13:17;;;;;;;;;44.40;35.20;;;;;12.89;64.51;99256.72;6185931;28;96049;-73
2022/11/10 07:16:38;;;;;;;;;41.00;35.00;;;;;12.98;64.46;99266.19;6182073;28;97565;-73
2022/11/10 07:20:00;;;;;;;;;44.00;35.60;;;;;13.04;64.26;99272.56;6182254;28;96572;-73
2022/11/10 07:23:22;;;;;;;;;43.00;35.00;;;;;13.04;64.26;99275.28;6183402;28;96260;-73
2022/11/10 07:26:46;;;;;;;;;46.80;38.00;;;;;13.02;64.33;99278.19;6178789;28;96738;-72
2022/11/10 07:30:09;;;;;;;;;48.00;39.00;;;;;13.05;64.57;99281.50;6182929;28;96303;-73
2022/11/10 07:33:31;;;;;;;;;53.00;41.80;;;;;13.07;64.53;99299.16;6184713;28;96876;-74
2022/11/10 07:36:53;;;;;;;;;54.80;44.40;;;;;13.00;65.28;99291.13;6184937;28;96410;-76
2022/11/10 07:40:15;;;;;;;;;57.20;44.40;;;;;12.96;65.92;99289.91;6166467;28;97369;-70
2022/11/10 07:43:39;;;;;;;;;52.20;42.80;;;;;12.97;66.22;99296.16;6182586;28;97419;-74
2022/11/10 07:47:01;;;;;;;;;52.00;40.25;;;;;12.95;66.99;99298.28;6177438;28;96290;-73
2022/11/10 07:50:22;;;;;;;;;53.00;43.00;;;;;12.93;67.46;99300.38;6178831;28;96283;-73
2022/11/10 07:53:44;;;;;;;;;52.80;40.00;;;;;12.96;67.85;99306.16;6186016;28;96357;-73
2022/11/10 07:57:06;;;;;;;;;50.00;41.00;;;;;13.01;67.78;99306.31;6182928;28;96270;-73
2022/11/10 08:00:32;;;;;;;;;52.00;41.00;;;;;13.02;67.88;99313.38;6181440;28;96787;-73
2022/11/10 08:03:54;;;;;;;;;47.00;38.75;;;;;13.09;68.08;99309.78;6180195;28;96378;-69
2022/11/10 08:07:16;;;;;;;;;49.00;39.00;;;;;13.18;67.85;99313.84;6166556;28;96681;-73
2022/11/10 08:10:39;;;;;;;;;48.40;36.40;;;;;13.26;68.76;99318.94;6179959;28;96882;-75
2022/11/10 08:14:01;;;;;;;;;45.00;37.00;;;;;13.35;68.38;99322.97;6179936;28;96852;-74
2022/11/10 08:17:24;;;;;;;;;46.00;37.60;;;;;13.35;68.73;99331.09;6174385;28;97006;-73
2022/11/10 08:20:46;;;;;;;;;43.00;35.00;;;;;13.33;69.25;99333.22;6174377;28;96652;-75
2022/11/10 08:24:08;;;;;;;;;45.00;36.00;;;;;13.34;69.36;99332.97;6180346;28;96516;-75
2022/11/10 08:27:30;;;;;;;;;47.00;37.20;;;;;13.28;69.45;99320.38;6179985;28;96511;-75
2022/11/10 08:30:53;;;;;;;;;47.33;38.67;;;;;13.50;69.17;99342.34;6161950;28;96761;-72
2022/11/10 08:34:17;;;;;;;;;45.60;37.40;;;;;13.54;68.94;99356.25;6180909;28;96673;-73
2022/11/10 08:37:39;;;;;;;;;44.60;36.60;;;;;13.55;68.54;99357.91;6172709;28;96569;-75
2022/11/10 08:41:01;;;;;;;;;45.60;38.00;;;;;13.49;68.89;99365.06;6175216;28;96384;-74
2022/11/10 08:44:23;;;;;;;;;48.50;38.75;;;;;13.41;68.86;99370.81;6186729;28;96510;-73
2022/11/10 08:47:45;;;;;;;;;48.00;38.00;;;;;13.53;68.95;99379.00;6186031;28;96501;-72
2022/11/10 08:51:08;;;;;;;;;44.75;36.25;;;;;13.58;68.90;99382.69;6184649;28;97383;-76
2022/11/10 08:54:30;;;;;;;;;49.00;38.80;;;;;13.63;68.79;99380.13;6184324;28;97167;-75
2022/11/10 08:57:53;;;;;;;;;49.00;40.40;;;;;13.51;69.17;99362.16;6190617;28;96673;-74
2022/11/10 09:01:14;;;;;;;;;47.00;37.00;;;;;13.67;69.30;99389.44;6195997;28;96631;-75
2022/11/10 09:04:37;;;;;;;;;45.80;36.20;;;;;13.77;69.32;99395.16;6183795;28;96412;-72
2022/11/10 09:08:00;;;;;;;;;47.40;38.00;;;;;13.89;69.15;99403.28;6172657;28;97812;-68
2022/11/10 09:11:21;;;;;;;;;50.00;40.40;;;;;14.01;68.61;99406.88;6174278;28;96824;-74
2022/11/10 09:14:43;;;;;;;;;47.20;39.00;;;;;14.08;68.67;99418.44;6166623;28;96447;-71
2022/11/10 09:18:07;;;;;;;;;47.40;38.00;;;;;14.15;68.63;99423.78;6176192;28;96947;-74
2022/11/10 09:21:30;;;;;;;;;50.80;40.20;;;;;14.39;68.48;99424.69;6181199;28;96910;-75
2022/11/10 09:24:53;;;;;;;;;52.20;41.80;;;;;14.37;68.22;99429.53;6174148;28;97341;-75
2022/11/10 09:28:16;;;;;;;;;54.67;43.00;;;;;14.34;68.91;99428.06;6167872;28;96716;-75
2022/11/10 09:31:38;;;;;;;;;50.00;41.00;;;;;14.50;68.51;99434.75;6179019;28;96672;-74
2022/11/10 09:35:00;;;;;;;;;50.40;40.00;;;;;14.52;68.56;99430.72;6176804;28;96451;-75
2022/11/10 09:38:22;;;;;;;;;52.60;40.40;;;;;14.59;68.57;99436.03;6188663;28;96537;-75
2022/11/10 09:41:46;;;;;;;;;51.40;39.00;;;;;14.63;68.21;99437.22;6162341;28;97690;-74
2022/11/10 09:45:21;;;;;;;;;47.60;39.00;;;;;14.68;68.46;99435.47;6185748;28;97132;-76
2022/11/10 09:48:47;;;;;;;;;46.60;39.00;;;;;14.68;68.55;99430.03;6185546;28;96963;-76
2022/11/10 09:52:12;;;;;;;;;49.00;38.60;;;;;14.65;69.10;99438.66;6182232;28;96497;-76
2022/11/10 09:55:43;;;;;;;;;48.00;37.00;;;;;14.68;69.60;99440.06;6188123;28;96824;-74
2022/11/10 09:59:15;;;;;;;;;48.00;38.20;;;;;14.80;72.60;99448.22;6186640;28;96493;-76
2022/11/10 10:02:42;;;;;;;;;49.80;39.40;;;;;14.62;71.55;99433.69;6185264;28;98055;-76
2022/11/10 10:06:10;;;;;;;;;49.00;39.00;;;;;14.87;70.67;99451.63;6165620;28;98492;-74
2022/11/10 10:09:39;;;;;;;;;50.75;41.00;;;;;15.00;70.14;99446.78;6188164;28;96054;-75
2022/11/10 10:13:20;;;;;;;;;52.20;40.00;;;;;15.21;70.23;99453.50;6161955;28;96691;-75
2022/11/10 10:16:51;;;;;;;;;51.20;41.20;;;;;15.39;69.02;99453.38;6170024;28;99030;-72
2022/11/10 10:20:20;;;;;;;;;49.00;41.00;;;;;15.42;68.62;99460.22;6166707;28;97196;-74
2022/11/10 10:23:49;;;;;;;;;49.60;39.80;;;;;15.46;68.36;99469.53;6176627;28;96392;-75
2022/11/10 10:27:34;;;;;;;;;50.00;40.00;;;;;15.51;68.57;99475.94;6180802;28;96311;-75
2022/11/10 10:31:07;;;;;;;;;52.60;41.00;;;;;15.57;68.46;99477.72;6182268;28;97651;-67
2022/11/10 10:34:33;;;;;;;;;45.67;36.00;;;;;15.69;68.12;99490.44;6186865;28;97289;-72
2022/11/10 10:37:57;;;;;;;;;46.50;38.00;;;;;15.69;67.60;99482.28;6180926;28;96490;-74
2022/11/10 10:41:24;;;;;;;;;45.20;36.00;;;;;15.72;67.46;99485.38;6180159;28;96469;-71
2022/11/10 10:45:14;;;;;;;;;44.60;34.00;;;;;15.76;67.23;99491.13;6174927;28;96909;-73
2022/11/10 10:48:37;;;;;;;;;44.40;35.00;;;;;15.87;66.99;99490.28;6172723;28;96666;-72
2022/11/10 10:52:11;;;;;;;;;47.00;36.00;;;;;15.79;67.09;99477.88;6172610;28;96946;-72
2022/11/10 10:55:34;;;;;;;;;37.00;31.00;;;;;15.98;66.86;99495.66;6174440;28;97667;-72
2022/11/10 10:58:58;;;;;;;;;40.00;34.00;;;;;16.11;65.92;99491.84;6169570;28;97434;-70
2022/11/10 11:02:26;;;;;;;;;39.20;32.00;;;;;16.14;65.92;99498.69;6176245;28;96719;-72
2022/11/10 11:06:00;;;;;;;;;41.00;33.00;;;;;16.13;65.56;99495.13;6177408;28;96561;-73
2022/11/10 11:09:26;;;;;;;;;36.20;31.20;;;;;16.12;65.99;99496.22;6171141;28;96776;-72
2022/11/10 11:12:48;;;;;;;;;34.00;29.40;;;;;16.10;66.05;99505.69;6186038;28;96421;-73
2022/11/10 11:16:11;;;;;;;;;37.40;30.60;;;;;16.08;66.21;99505.13;6187107;28;96658;-72
2022/11/10 11:19:36;;;;;;;;;37.80;31.20;;;;;15.99;66.54;99496.50;6178903;28;96318;-73
2022/11/10 11:23:07;;;;;;;;;34.20;29.60;;;;;16.18;66.38;99505.28;6185922;28;96474;-73
2022/11/10 11:26:40;;;;;;;;;35.80;29.80;;;;;16.14;66.56;99510.41;6168341;28;96968;-72
2022/11/10 11:30:06;;;;;;;;;35.00;30.75;;;;;16.22;66.86;99514.63;6187003;28;97410;-73
2022/11/10 11:33:37;;;;;;;;;31.80;27.60;;;;;16.18;67.45;99510.72;6173026;28;97069;-73
2022/11/10 11:37:06;;;;;;;;;32.60;28.00;;;;;16.14;67.80;99520.44;6184073;28;96373;-73
2022/11/10 11:40:46;;;;;;;;;32.40;26.40;;;;;16.11;68.75;99520.94;6186540;28;96462;-72
2022/11/10 11:44:25;;;;;;;;;36.40;29.00;;;;;16.01;69.43;99522.41;6184324;28;97434;-74
2022/11/10 11:48:11;;;;;;;;;34.40;27.40;;;;;15.98;69.71;99522.88;6179422;28;96350;-75
2022/11/10 11:51:41;;;;;;;;;30.80;25.80;;;;;16.00;70.03;99526.19;6184660;28;97748;-73
2022/11/10 11:55:16;;;;;;;;;31.00;28.50;;;;;15.90;70.61;99531.41;6173361;28;97668;-72
2022/11/10 11:58:44;;;;;;;;;31.00;27.60;;;;;15.95;70.55;99531.53;6187184;28;96839;-71
2022/11/10 12:02:43;;;;;;;;;31.60;28.60;;;;;15.86;71.32;99543.84;6181208;28;96882;-73
2022/11/10 12:06:40;;;;;;;;;30.60;27.60;;;;;15.87;71.50;99540.06;6179073;28;97165;-73
2022/11/10 12:10:17;;;;;;;;;31.40;30.00;;;;;15.99;71.07;99527.25;6181551;28;96895;-74
2022/11/10 12:13:50;;;;;;;;;29.40;25.00;;;;;16.14;70.83;99524.00;6186441;28;97047;-72
2022/11/10 12:17:22;;;;;;;;;32.00;26.67;;;;;16.31;70.41;99538.50;6187797;28;96478;-75
2022/11/10 12:20:57;;;;;;;;;21.80;19.60;;;;;16.22;70.09;99534.50;6186239;28;96285;-74
2022/11/10 12:24:32;;;;;;;;;32.50;28.50;;;;;16.39;69.27;99548.97;6185960;28;96670;-73
2022/11/10 12:28:00;;;;;;;;;26.33;23.33;;;;;16.37;69.02;99534.78;6187913;28;97259;-75
2022/11/10 12:31:24;;;;;;;;;27.20;23.80;;;;;16.46;69.23;99551.56;6189681;28;96319;-75
2022/11/10 12:34:50;;;;;;;;;30.60;24.60;;;;;16.48;69.06;99557.56;6189834;28;96379;-74
2022/11/10 12:38:17;;;;;;;;;28.00;26.00;;;;;16.43;68.65;99562.91;6189069;28;97226;-75
2022/11/10 12:41:44;;;;;;;;;28.00;23.50;;;;;16.37;68.69;99561.19;6190356;28;96292;-76
2022/11/10 12:45:08;;;;;;;;;28.00;25.25;;;;;16.33;69.05;99560.00;6165441;28;96741;-76
2022/11/10 12:48:50;;;;;;;;;29.60;25.20;;;;;16.30;68.50;99544.16;6189228;28;96451;-75
2022/11/10 12:52:16;;;;;;;;;25.50;22.00;;;;;16.46;68.37;99570.63;6175062;28;96277;-75
2022/11/10 12:55:44;;;;;;;;;26.60;22.00;;;;;16.45;67.94;99572.50;6178733;28;96922;-75
2022/11/10 12:59:28;;;;;;;;;27.20;22.40;;;;;16.43;68.03;99576.53;6179252;28;96609;-73
2022/11/10 13:02:51;;;;;;;;;29.60;26.40;;;;;16.45;67.77;99575.22;6185245;28;96570;-73
2022/11/10 13:06:25;;;;;;;;;27.00;23.50;;;;;16.47;67.90;99575.81;6190790;28;97623;-75
2022/11/10 13:09:47;;;;;;;;;26.20;22.80;;;;;16.53;67.53;99584.06;6185572;28;96503;-74
2022/11/10 13:13:14;;;;;;;;;26.60;25.60;;;;;16.43;68.03;99576.53;6189657;28;96497;-77
2022/11/10 13:16:50;;;;;;;;;27.75;25.50;;;;;16.51;67.50;99583.50;6181237;28;96918;-76
2022/11/10 13:20:45;;;;;;;;;28.40;24.40;;;;;16.56;67.23;99595.31;6188456;28;96888;-75
2022/11/10 13:24:23;;;;;;;;;25.00;22.00;;;;;16.58;66.84;99600.50;6179559;28;96536;-73
2022/11/10 13:27:52;;;;;;;;;26.80;24.20;;;;;16.52;66.79;99605.00;6177553;28;97190;-71
2022/11/10 13:31:40;;;;;;;;;30.25;26.25;;;;;16.46;66.84;99615.00;6176202;28;96554;-75
2022/11/10 13:35:36;;;;;;;;;26.20;22.60;;;;;16.44;66.86;99613.56;6170618;28;97098;-76
2022/11/10 13:39:22;;;;;;;;;29.80;29.00;;;;;16.53;66.48;99617.56;6176078;28;96979;-76
2022/11/10 13:43:25;;;;;;;;;30.00;26.00;;;;;16.56;66.53;99622.53;6175723;28;96508;-73
2022/11/10 13:47:04;;;;;;;;;30.00;26.50;;;;;16.67;66.21;99631.72;6168051;28;96246;-74
2022/11/10 13:50:39;;;;;;;;;28.00;25.20;;;;;16.93;65.52;99635.75;6186935;28;97152;-75
2022/11/10 13:54:19;;;;;;;;;27.20;23.20;;;;;17.27;64.32;99643.75;6178828;28;96812;-75
2022/11/10 13:57:56;;;;;;;;;31.75;24.00;;;;;17.42;63.26;99642.34;6180954;28;96614;-75
2022/11/10 14:01:29;;;;;;;;;31.40;26.00;;;;;17.46;62.07;99638.88;6184556;28;96642;-74
2022/11/10 14:04:52;;;;;;;;;26.00;21.00;;;;;17.48;61.76;99638.63;6180455;28;97190;-72
2022/11/10 14:08:24;;;;;;;;;31.00;25.50;;;;;17.46;61.91;99621.69;6175191;28;96526;-72
2022/11/10 14:11:53;;;;;;;;;30.40;25.00;;;;;17.62;60.80;99624.44;6182112;28;98557;-75
2022/11/10 14:15:17;;;;;;;;;33.00;28.60;;;;;17.70;60.24;99639.53;6186261;28;96892;-74
2022/11/10 14:18:41;;;;;;;;;31.00;26.00;;;;;17.70;60.28;99650.44;6185853;28;96276;-75
2022/11/10 14:22:14;;;;;;;;;32.80;27.00;;;;;17.58;59.86;99666.06;6183215;28;97757;-73
2022/11/10 14:25:41;;;;;;;;;28.80;25.80;;;;;17.45;59.98;99666.38;6185437;28;97496;-72
2022/11/10 14:29:31;;;;;;;;;27.25;24.25;;;;;17.30;60.21;99677.84;6175913;28;96552;-74
2022/11/10 14:33:01;;;;;;;;;27.80;25.20;;;;;17.17;60.51;99678.16;6181928;28;97173;-76
2022/11/10 14:36:24;;;;;;;;;27.00;24.25;;;;;17.02;60.82;99684.16;6187949;28;97374;-76
2022/11/10 14:39:48;;;;;;;;;27.00;24.50;;;;;16.88;61.35;99688.25;6186869;28;96611;-74
2022/11/10 14:43:25;;;;;;;;;28.20;24.60;;;;;16.72;61.82;99700.72;6187446;28;96317;-73
2022/11/10 14:46:47;;;;;;;;;30.00;25.00;;;;;16.38;62.53;99671.69;6179611;28;96462;-76
2022/11/10 14:50:18;;;;;;;;;31.20;25.20;;;;;16.37;63.33;99694.53;6187171;28;96387;-74
2022/11/10 14:53:46;;;;;;;;;32.60;28.40;;;;;16.19;63.82;99698.22;6186521;28;96363;-75
2022/11/10 14:57:17;;;;;;;;;29.50;24.50;;;;;16.02;64.34;99697.31;6186243;28;97598;-75
2022/11/10 15:00:40;;;;;;;;;27.40;24.00;;;;;15.93;64.75;99707.69;6171433;28;96337;-74
2022/11/10 15:04:05;;;;;;;;;29.60;26.00;;;;;15.83;65.29;99704.72;6180807;28;97261;-73
2022/11/10 15:07:28;;;;;;;;;25.00;24.40;;;;;15.77;65.71;99713.84;6183131;28;96400;-74
2022/11/10 15:10:52;;;;;;;;;27.00;25.60;;;;;15.70;66.06;99710.41;6177200;28;96276;-74
2022/11/10 15:14:37;;;;;;;;;27.00;25.40;;;;;15.73;65.85;99720.00;6177015;28;97137;-73
2022/11/10 15:17:58;;;;;;;;;29.40;27.40;;;;;15.67;65.97;99727.19;6183859;28;97538;-74
2022/11/10 15:21:22;;;;;;;;;29.00;26.00;;;;;15.58;66.38;99732.16;6184323;28;96314;-74
2022/11/10 15:24:45;;;;;;;;;27.75;23.00;;;;;15.56;66.53;99734.25;6179962;28;97042;-74
2022/11/10 15:28:22;;;;;;;;;29.60;26.00;;;;;15.59;66.67;99743.81;6174129;28;97110;-74
2022/11/10 15:31:46;;;;;;;;;28.00;24.80;;;;;15.54;66.71;99741.81;6163033;28;96672;-73
2022/11/10 15:35:10;;;;;;;;;28.50;25.50;;;;;15.54;66.65;99754.59;6172058;28;96385;-74
2022/11/10 15:38:32;;;;;;;;;28.00;25.50;;;;;15.53;66.54;99750.22;6186100;28;96308;-74
2022/11/10 15:41:58;;;;;;;;;24.80;23.00;;;;;15.39;66.73;99743.28;6171416;28;97194;-73
2022/11/10 15:45:20;;;;;;;;;29.60;25.00;;;;;15.44;66.85;99754.28;6179068;28;96391;-73
2022/11/10 15:48:46;;;;;;;;;27.00;24.80;;;;;15.46;66.73;99758.44;6164296;28;96712;-73
2022/11/10 15:52:14;;;;;;;;;26.40;23.20;;;;;15.48;66.68;99775.34;6186176;28;96347;-73
2022/11/10 15:55:36;;;;;;;;;27.00;23.75;;;;;15.50;66.58;99773.19;6188176;28;97383;-73
2022/11/10 15:58:58;;;;;;;;;27.00;23.60;;;;;15.52;66.56;99770.28;6166013;28;96659;-73